Accedi per prenotare

Situazione Metar e Taf aeroporto Pisa - Effemeridi Aeroporto Lucca

[Source: ADDS]
METAR
LIRP 291245Z 36005KT 9999 FEW025 18/05 Q1015 NOSIG =
TAF
LIRP 291100Z 2912/3012 06005KT 9999 FEW040 =
SR / SS: 04:15 / 18:19 UTC (Effemeridi LIQL 2017-04-29)